Langsville, Ohio
Current Conditions -  °F | °C
As of 10:35 PM on Wednesday 22 Oct 2014 (Local Time) from K3I2 Reporting Station
Overcast Overcast  
Wind Chill: 52°   Ceiling: 3400
Heat Index: 52°   Visibility: 10mi
Dew Point: 41°   Wind: 0mph
Humidity: 67%   Direction: NA
Pressure: 30.25"   Gusts: NA
Location:  39.05°N, 82.18°W
Report Text: K3I2 230235Z AUTO 00000KT 10SM OVC034 11/05 A3025 RMK AO2
Loading
Personal Weather Stations






























Interactive Weather Map
Tropical Storm Tracking
New forecast layout! Learn more

10-Day Weather Forecast

Advertisements
Track Severe Weather on mobile